Las Cruces, NM

7:31 PM MDT on August 03, 2015 (GMT -0600)
Las Alturas | | Change Station
CLOSE
Current Station
Personal Weather Station
Location: Las Cruces, NM
Elevation: 4037 ft
Nearby Weather Stations

Elev 4037 ft 32.27 °N, 106.73 °W | Updated 27 seconds ago

Clear
Clear
88.0 °F
Feels Like 88 °F
N
3.0
Wind Variable Wind from SW
Gusts 4.0 mph

Today
High -- | Low -- °F
--% Chance of Precip.
Yesterday
High -- | Low -- °F
Precip. -- in
6:23 AM 8:02 PM
Waning Gibbous, 82% visible
Pressure 30.01 in
Visibility 10.0 miles
Clouds Clear
Heat Index 88 °F
Dew Point 60 °F
Humidity 39%
Rainfall 0.02 in
Snow Depth Not available.
UV 0.0 out of 12
Pollen 3.70 out of 12
Air Quality Not available.
Flu Activity Not available.
METAR KLRU 040115Z AUTO 19006KT 10SM CLR 31/12 A3001 RMK AO2 T03060115

More Conditions Fewer Conditions

Pressure 30.01 in
Visibility 10.0 miles
Clouds Clear
Heat Index 88 °F
Dew Point 60 °F
Humidity 39%
Rainfall 0.02 in
Snow Depth Not available.
UV 0.0 out of 12
Pollen 3.70 out of 12
Air Quality Not available.
Flu Activity Not available.
METAR KLRU 040115Z AUTO 19006KT 10SM CLR 31/12 A3001 RMK AO2 T03060115

More Conditions Fewer Conditions

Nowcast | as of 7:20 PM MDT on August 3, 2015

At 716 PM MDT...rain showers and thunderstorms were continuing to slowly move southeast through the Borderland. The majority of the activity was located on the border between Grant and Sierra counties in New Mexico and in southern central Luna County in New Mexico. These storms are capable of producing minor flooding...pea sized hail and wind gusts up to 30 mph. Rain accumulations with these storms is expected to be half an inch to an inch. These storms will continue to track southeast for the next several hours as more rain showers and thunderstorms develop during the rest of the evening hours. For more information check out our website at www.Srh.NOAA.Gov/epz/ or follow US on facebook and twitter.

×

10-Day Weather Forecast

×

Almanac

Astronomy

Aug. 03, 2015 Rise Set
Actual Time
Civil Twilight
Nautical Twilight
Astronomical Twilight
Moon
Length of Visible Light
Length of Day
Tomorrow will be .
, % of the Moon is Illuminated

Today's Extremes

State Highs State Lows

Community

WunderPhotos

Upload Photos

1,843,816 photos uploaded!

WunderBlogs® & News

Nearby

Air Quality

  Air Quality AQ Index Pollutant
Not available.

Snow Depth

Station Depth Elevation

Earthquake Activity

City Distance Mag. Time & Date
Minimum magnitude displayed is 2.5.

Coastal Water Temperatures

Place Temperature

Stations

Nearby Weather Stations

Station Location Temp. Windchill Dew Point Humidity Wind Precip. Elev Updated Type